sensor_id;sensor_type;location;lat;lon;timestamp;P1;durP1;ratioP1;P2;durP2;ratioP2
37241;SDS011;23135;51.078;12.108;2023-06-10T00:01:00;9.27;;;4.35;;
37241;SDS011;23135;51.078;12.108;2023-06-10T00:03:26;8.98;;;4.55;;
37241;SDS011;23135;51.078;12.108;2023-06-10T00:05:51;7.28;;;4.15;;
37241;SDS011;23135;51.078;12.108;2023-06-10T00:08:17;7.28;;;4.13;;
37241;SDS011;23135;51.078;12.108;2023-06-10T00:10:44;10.60;;;4.88;;
37241;SDS011;23135;51.078;12.108;2023-06-10T00:13:10;7.50;;;4.88;;
37241;SDS011;23135;51.078;12.108;2023-06-10T00:15:36;8.35;;;5.57;;
37241;SDS011;23135;51.078;12.108;2023-06-10T00:18:02;10.23;;;4.13;;
37241;SDS011;23135;51.078;12.108;2023-06-10T00:20:29;5.13;;;4.38;;
37241;SDS011;23135;51.078;12.108;2023-06-10T00:22:55;11.73;;;5.53;;
37241;SDS011;23135;51.078;12.108;2023-06-10T00:25:22;6.47;;;3.78;;
37241;SDS011;23135;51.078;12.108;2023-06-10T00:27:47;6.63;;;4.60;;
37241;SDS011;23135;51.078;12.108;2023-06-10T00:30:13;5.78;;;3.67;;
37241;SDS011;23135;51.078;12.108;2023-06-10T00:32:39;7.40;;;4.50;;
37241;SDS011;23135;51.078;12.108;2023-06-10T00:35:05;8.50;;;3.40;;
37241;SDS011;23135;51.078;12.108;2023-06-10T00:37:31;8.88;;;4.72;;
37241;SDS011;23135;51.078;12.108;2023-06-10T00:39:59;7.25;;;4.70;;
37241;SDS011;23135;51.078;12.108;2023-06-10T00:42:25;6.85;;;4.90;;
37241;SDS011;23135;51.078;12.108;2023-06-10T00:44:51;5.45;;;4.13;;
37241;SDS011;23135;51.078;12.108;2023-06-10T00:47:17;8.82;;;5.43;;
37241;SDS011;23135;51.078;12.108;2023-06-10T00:49:43;6.88;;;5.32;;
37241;SDS011;23135;51.078;12.108;2023-06-10T00:52:09;8.95;;;4.32;;
37241;SDS011;23135;51.078;12.108;2023-06-10T00:54:36;4.80;;;4.30;;
37241;SDS011;23135;51.078;12.108;2023-06-10T00:57:03;7.55;;;4.45;;
37241;SDS011;23135;51.078;12.108;2023-06-10T00:59:30;10.00;;;5.22;;
37241;SDS011;23135;51.078;12.108;2023-06-10T01:01:56;9.45;;;5.38;;
37241;SDS011;23135;51.078;12.108;2023-06-10T01:04:22;6.72;;;4.20;;
37241;SDS011;23135;51.078;12.108;2023-06-10T01:09:25;9.55;;;4.85;;
37241;SDS011;23135;51.078;12.108;2023-06-10T01:12:01;7.97;;;4.68;;
37241;SDS011;23135;51.078;12.108;2023-06-10T01:14:34;14.00;;;4.50;;
37241;SDS011;23135;51.078;12.108;2023-06-10T01:17:03;16.35;;;6.35;;
37241;SDS011;23135;51.078;12.108;2023-06-10T01:19:29;19.13;;;7.38;;
37241;SDS011;23135;51.078;12.108;2023-06-10T01:21:56;6.95;;;4.35;;
37241;SDS011;23135;51.078;12.108;2023-06-10T01:24:26;9.40;;;4.75;;
37241;SDS011;23135;51.078;12.108;2023-06-10T01:26:53;6.22;;;3.95;;
37241;SDS011;23135;51.078;12.108;2023-06-10T01:29:22;7.00;;;4.03;;
37241;SDS011;23135;51.078;12.108;2023-06-10T01:32:12;8.20;;;3.88;;
37241;SDS011;23135;51.078;12.108;2023-06-10T01:34:43;16.67;;;4.30;;
37241;SDS011;23135;51.078;12.108;2023-06-10T01:37:11;10.02;;;4.15;;
37241;SDS011;23135;51.078;12.108;2023-06-10T01:39:40;7.50;;;4.38;;
37241;SDS011;23135;51.078;12.108;2023-06-10T01:42:07;9.10;;;3.75;;
37241;SDS011;23135;51.078;12.108;2023-06-10T01:44:35;8.38;;;5.15;;
37241;SDS011;23135;51.078;12.108;2023-06-10T01:47:00;6.43;;;4.57;;
37241;SDS011;23135;51.078;12.108;2023-06-10T01:49:26;9.25;;;4.60;;
37241;SDS011;23135;51.078;12.108;2023-06-10T01:51:53;5.50;;;4.25;;
37241;SDS011;23135;51.078;12.108;2023-06-10T01:54:19;10.88;;;4.05;;
37241;SDS011;23135;51.078;12.108;2023-06-10T01:56:44;11.05;;;4.40;;
37241;SDS011;23135;51.078;12.108;2023-06-10T01:59:10;9.43;;;4.55;;
37241;SDS011;23135;51.078;12.108;2023-06-10T02:01:36;8.55;;;3.60;;
37241;SDS011;23135;51.078;12.108;2023-06-10T02:04:01;9.95;;;3.78;;
37241;SDS011;23135;51.078;12.108;2023-06-10T02:06:27;5.28;;;4.32;;
37241;SDS011;23135;51.078;12.108;2023-06-10T02:08:52;9.00;;;4.20;;
37241;SDS011;23135;51.078;12.108;2023-06-10T02:11:18;7.00;;;3.75;;
37241;SDS011;23135;51.078;12.108;2023-06-10T02:13:43;4.63;;;3.38;;
37241;SDS011;23135;51.078;12.108;2023-06-10T02:16:09;6.57;;;3.63;;
37241;SDS011;23135;51.078;12.108;2023-06-10T02:18:38;7.13;;;4.22;;
37241;SDS011;23135;51.078;12.108;2023-06-10T02:21:05;10.18;;;4.25;;
37241;SDS011;23135;51.078;12.108;2023-06-10T02:23:32;10.73;;;5.45;;
37241;SDS011;23135;51.078;12.108;2023-06-10T02:25:57;9.60;;;4.38;;
37241;SDS011;23135;51.078;12.108;2023-06-10T02:28:23;11.25;;;4.95;;
37241;SDS011;23135;51.078;12.108;2023-06-10T02:30:48;17.23;;;5.03;;
37241;SDS011;23135;51.078;12.108;2023-06-10T02:33:14;6.65;;;4.47;;
37241;SDS011;23135;51.078;12.108;2023-06-10T02:35:40;6.40;;;3.72;;
37241;SDS011;23135;51.078;12.108;2023-06-10T02:38:05;10.68;;;4.30;;
37241;SDS011;23135;51.078;12.108;2023-06-10T02:40:31;14.85;;;4.78;;
37241;SDS011;23135;51.078;12.108;2023-06-10T02:42:57;13.48;;;4.28;;
37241;SDS011;23135;51.078;12.108;2023-06-10T02:45:23;8.60;;;4.05;;
37241;SDS011;23135;51.078;12.108;2023-06-10T02:47:49;7.43;;;3.70;;
37241;SDS011;23135;51.078;12.108;2023-06-10T02:50:15;7.97;;;3.92;;
37241;SDS011;23135;51.078;12.108;2023-06-10T02:52:41;6.43;;;3.90;;
37241;SDS011;23135;51.078;12.108;2023-06-10T02:55:06;7.38;;;3.38;;
37241;SDS011;23135;51.078;12.108;2023-06-10T02:57:32;7.80;;;3.55;;
37241;SDS011;23135;51.078;12.108;2023-06-10T02:59:57;13.73;;;3.42;;
37241;SDS011;23135;51.078;12.108;2023-06-10T03:02:24;9.40;;;3.33;;
37241;SDS011;23135;51.078;12.108;2023-06-10T03:04:56;10.30;;;3.65;;
37241;SDS011;23135;51.078;12.108;2023-06-10T03:07:22;10.98;;;3.97;;
37241;SDS011;23135;51.078;12.108;2023-06-10T03:09:48;8.40;;;3.63;;
37241;SDS011;23135;51.078;12.108;2023-06-10T03:12:14;4.53;;;3.03;;
37241;SDS011;23135;51.078;12.108;2023-06-10T03:14:40;6.22;;;3.88;;
37241;SDS011;23135;51.078;12.108;2023-06-10T03:17:05;11.10;;;3.88;;
37241;SDS011;23135;51.078;12.108;2023-06-10T03:19:33;14.13;;;4.07;;
37241;SDS011;23135;51.078;12.108;2023-06-10T03:22:12;10.15;;;3.33;;
37241;SDS011;23135;51.078;12.108;2023-06-10T03:24:39;7.07;;;3.38;;
37241;SDS011;23135;51.078;12.108;2023-06-10T03:27:08;5.78;;;3.30;;
37241;SDS011;23135;51.078;12.108;2023-06-10T03:29:42;6.78;;;3.55;;
37241;SDS011;23135;51.078;12.108;2023-06-10T03:34:33;7.78;;;3.47;;
37241;SDS011;23135;51.078;12.108;2023-06-10T03:36:59;7.65;;;4.22;;
37241;SDS011;23135;51.078;12.108;2023-06-10T03:39:25;8.05;;;3.42;;
37241;SDS011;23135;51.078;12.108;2023-06-10T03:41:53;7.32;;;3.75;;
37241;SDS011;23135;51.078;12.108;2023-06-10T03:44:19;9.27;;;4.00;;
37241;SDS011;23135;51.078;12.108;2023-06-10T03:46:45;11.10;;;3.88;;
37241;SDS011;23135;51.078;12.108;2023-06-10T03:49:10;10.50;;;4.28;;
37241;SDS011;23135;51.078;12.108;2023-06-10T03:51:36;15.95;;;3.70;;
37241;SDS011;23135;51.078;12.108;2023-06-10T03:54:02;11.68;;;3.97;;
37241;SDS011;23135;51.078;12.108;2023-06-10T03:56:28;15.75;;;4.43;;
37241;SDS011;23135;51.078;12.108;2023-06-10T03:58:54;8.73;;;3.35;;
37241;SDS011;23135;51.078;12.108;2023-06-10T04:01:20;7.10;;;3.35;;
37241;SDS011;23135;51.078;12.108;2023-06-10T04:03:46;8.50;;;3.40;;
37241;SDS011;23135;51.078;12.108;2023-06-10T04:06:13;6.95;;;3.58;;
37241;SDS011;23135;51.078;12.108;2023-06-10T04:08:39;5.97;;;3.15;;
37241;SDS011;23135;51.078;12.108;2023-06-10T04:11:05;13.15;;;4.20;;
37241;SDS011;23135;51.078;12.108;2023-06-10T04:13:31;8.98;;;4.15;;
37241;SDS011;23135;51.078;12.108;2023-06-10T04:15:56;15.45;;;4.68;;
37241;SDS011;23135;51.078;12.108;2023-06-10T04:18:22;8.43;;;3.25;;
37241;SDS011;23135;51.078;12.108;2023-06-10T04:20:48;9.13;;;3.97;;
37241;SDS011;23135;51.078;12.108;2023-06-10T04:23:13;10.93;;;4.82;;
37241;SDS011;23135;51.078;12.108;2023-06-10T04:25:39;13.32;;;4.97;;
37241;SDS011;23135;51.078;12.108;2023-06-10T04:28:04;16.55;;;3.75;;
37241;SDS011;23135;51.078;12.108;2023-06-10T04:30:30;13.77;;;4.30;;
37241;SDS011;23135;51.078;12.108;2023-06-10T04:32:56;7.63;;;3.70;;
37241;SDS011;23135;51.078;12.108;2023-06-10T04:35:22;6.63;;;3.17;;
37241;SDS011;23135;51.078;12.108;2023-06-10T04:37:47;10.13;;;5.82;;
37241;SDS011;23135;51.078;12.108;2023-06-10T04:40:13;12.75;;;4.30;;
37241;SDS011;23135;51.078;12.108;2023-06-10T04:42:40;6.80;;;4.32;;
37241;SDS011;23135;51.078;12.108;2023-06-10T04:45:06;12.40;;;5.07;;
37241;SDS011;23135;51.078;12.108;2023-06-10T04:47:32;6.78;;;3.72;;
37241;SDS011;23135;51.078;12.108;2023-06-10T04:49:58;7.68;;;2.95;;
37241;SDS011;23135;51.078;12.108;2023-06-10T04:52:28;9.55;;;3.80;;
37241;SDS011;23135;51.078;12.108;2023-06-10T04:54:54;8.32;;;4.78;;
37241;SDS011;23135;51.078;12.108;2023-06-10T04:57:20;9.73;;;4.13;;
37241;SDS011;23135;51.078;12.108;2023-06-10T04:59:46;11.82;;;3.97;;
37241;SDS011;23135;51.078;12.108;2023-06-10T05:02:12;11.25;;;4.70;;
37241;SDS011;23135;51.078;12.108;2023-06-10T05:04:38;9.65;;;4.50;;
37241;SDS011;23135;51.078;12.108;2023-06-10T05:07:04;11.07;;;4.72;;
37241;SDS011;23135;51.078;12.108;2023-06-10T05:09:30;11.07;;;4.65;;
37241;SDS011;23135;51.078;12.108;2023-06-10T05:11:55;6.20;;;3.78;;
37241;SDS011;23135;51.078;12.108;2023-06-10T05:14:21;10.32;;;4.63;;
37241;SDS011;23135;51.078;12.108;2023-06-10T05:16:47;12.93;;;5.53;;
37241;SDS011;23135;51.078;12.108;2023-06-10T05:19:13;16.45;;;3.97;;
37241;SDS011;23135;51.078;12.108;2023-06-10T05:21:39;9.73;;;4.78;;
37241;SDS011;23135;51.078;12.108;2023-06-10T05:24:04;7.80;;;4.20;;
37241;SDS011;23135;51.078;12.108;2023-06-10T05:26:31;5.95;;;3.92;;
37241;SDS011;23135;51.078;12.108;2023-06-10T05:28:58;10.38;;;4.78;;
37241;SDS011;23135;51.078;12.108;2023-06-10T05:31:23;7.40;;;4.18;;
37241;SDS011;23135;51.078;12.108;2023-06-10T05:33:49;5.70;;;4.00;;
37241;SDS011;23135;51.078;12.108;2023-06-10T05:36:14;15.23;;;5.25;;
37241;SDS011;23135;51.078;12.108;2023-06-10T05:38:40;11.20;;;4.45;;
37241;SDS011;23135;51.078;12.108;2023-06-10T05:41:06;10.38;;;4.75;;
37241;SDS011;23135;51.078;12.108;2023-06-10T05:43:31;10.48;;;4.47;;
37241;SDS011;23135;51.078;12.108;2023-06-10T05:45:57;7.20;;;4.35;;
37241;SDS011;23135;51.078;12.108;2023-06-10T05:48:22;9.40;;;4.60;;
37241;SDS011;23135;51.078;12.108;2023-06-10T05:50:48;10.77;;;4.00;;
37241;SDS011;23135;51.078;12.108;2023-06-10T05:53:14;9.90;;;3.85;;
37241;SDS011;23135;51.078;12.108;2023-06-10T05:55:41;5.45;;;3.17;;
37241;SDS011;23135;51.078;12.108;2023-06-10T05:58:07;6.22;;;4.07;;
37241;SDS011;23135;51.078;12.108;2023-06-10T06:00:33;10.02;;;4.03;;
37241;SDS011;23135;51.078;12.108;2023-06-10T06:02:58;13.88;;;4.20;;
37241;SDS011;23135;51.078;12.108;2023-06-10T06:05:24;11.27;;;3.75;;
37241;SDS011;23135;51.078;12.108;2023-06-10T06:07:50;5.78;;;3.78;;
37241;SDS011;23135;51.078;12.108;2023-06-10T06:10:16;4.45;;;3.28;;
37241;SDS011;23135;51.078;12.108;2023-06-10T06:12:43;9.20;;;3.53;;
37241;SDS011;23135;51.078;12.108;2023-06-10T06:15:09;7.72;;;4.03;;
37241;SDS011;23135;51.078;12.108;2023-06-10T06:17:35;8.82;;;3.63;;
37241;SDS011;23135;51.078;12.108;2023-06-10T06:20:02;5.00;;;3.20;;
37241;SDS011;23135;51.078;12.108;2023-06-10T06:22:28;11.05;;;4.50;;
37241;SDS011;23135;51.078;12.108;2023-06-10T06:24:54;7.60;;;4.03;;
37241;SDS011;23135;51.078;12.108;2023-06-10T06:27:19;6.30;;;3.55;;
37241;SDS011;23135;51.078;12.108;2023-06-10T06:29:46;6.47;;;3.70;;
37241;SDS011;23135;51.078;12.108;2023-06-10T06:32:11;13.60;;;5.57;;
37241;SDS011;23135;51.078;12.108;2023-06-10T06:34:37;5.55;;;3.65;;
37241;SDS011;23135;51.078;12.108;2023-06-10T06:37:02;6.55;;;3.40;;
37241;SDS011;23135;51.078;12.108;2023-06-10T06:39:28;8.35;;;3.50;;
37241;SDS011;23135;51.078;12.108;2023-06-10T06:41:54;9.27;;;4.75;;
37241;SDS011;23135;51.078;12.108;2023-06-10T06:44:19;9.63;;;5.13;;
37241;SDS011;23135;51.078;12.108;2023-06-10T06:46:45;12.07;;;4.32;;
37241;SDS011;23135;51.078;12.108;2023-06-10T06:49:11;11.38;;;4.30;;
37241;SDS011;23135;51.078;12.108;2023-06-10T06:51:36;5.30;;;3.60;;
37241;SDS011;23135;51.078;12.108;2023-06-10T06:54:02;8.95;;;4.63;;
37241;SDS011;23135;51.078;12.108;2023-06-10T06:56:28;6.50;;;3.75;;
37241;SDS011;23135;51.078;12.108;2023-06-10T06:58:53;6.30;;;4.43;;
37241;SDS011;23135;51.078;12.108;2023-06-10T07:01:19;8.60;;;3.55;;
37241;SDS011;23135;51.078;12.108;2023-06-10T07:03:45;7.85;;;4.95;;
37241;SDS011;23135;51.078;12.108;2023-06-10T07:06:11;7.55;;;3.92;;
37241;SDS011;23135;51.078;12.108;2023-06-10T07:08:37;10.18;;;3.85;;
37241;SDS011;23135;51.078;12.108;2023-06-10T07:11:03;9.45;;;4.80;;
37241;SDS011;23135;51.078;12.108;2023-06-10T07:13:28;15.23;;;4.53;;
37241;SDS011;23135;51.078;12.108;2023-06-10T07:15:54;17.00;;;6.40;;
37241;SDS011;23135;51.078;12.108;2023-06-10T07:18:19;6.90;;;3.90;;
37241;SDS011;23135;51.078;12.108;2023-06-10T07:20:45;8.55;;;5.75;;
37241;SDS011;23135;51.078;12.108;2023-06-10T07:23:11;10.82;;;4.97;;
37241;SDS011;23135;51.078;12.108;2023-06-10T07:25:36;11.75;;;5.25;;
37241;SDS011;23135;51.078;12.108;2023-06-10T07:28:02;13.55;;;5.55;;
37241;SDS011;23135;51.078;12.108;2023-06-10T07:30:28;11.43;;;4.53;;
37241;SDS011;23135;51.078;12.108;2023-06-10T07:32:53;7.95;;;4.43;;
37241;SDS011;23135;51.078;12.108;2023-06-10T07:35:20;13.18;;;6.60;;
37241;SDS011;23135;51.078;12.108;2023-06-10T07:37:46;11.40;;;4.53;;
37241;SDS011;23135;51.078;12.108;2023-06-10T07:40:12;11.23;;;5.28;;
37241;SDS011;23135;51.078;12.108;2023-06-10T07:42:37;7.43;;;4.63;;
37241;SDS011;23135;51.078;12.108;2023-06-10T07:45:03;8.52;;;4.90;;
37241;SDS011;23135;51.078;12.108;2023-06-10T07:47:29;11.68;;;4.70;;
37241;SDS011;23135;51.078;12.108;2023-06-10T07:49:55;7.70;;;4.60;;
37241;SDS011;23135;51.078;12.108;2023-06-10T07:52:21;10.07;;;4.97;;
37241;SDS011;23135;51.078;12.108;2023-06-10T07:54:47;12.10;;;4.38;;
37241;SDS011;23135;51.078;12.108;2023-06-10T07:57:12;11.93;;;5.30;;
37241;SDS011;23135;51.078;12.108;2023-06-10T07:59:38;11.27;;;5.18;;
37241;SDS011;23135;51.078;12.108;2023-06-10T08:02:04;8.93;;;4.93;;
37241;SDS011;23135;51.078;12.108;2023-06-10T08:04:30;8.48;;;5.45;;
37241;SDS011;23135;51.078;12.108;2023-06-10T08:06:56;10.48;;;5.55;;
37241;SDS011;23135;51.078;12.108;2023-06-10T08:09:22;13.80;;;5.13;;
37241;SDS011;23135;51.078;12.108;2023-06-10T08:11:48;8.90;;;5.15;;
37241;SDS011;23135;51.078;12.108;2023-06-10T08:14:14;9.50;;;4.75;;
37241;SDS011;23135;51.078;12.108;2023-06-10T08:16:41;12.32;;;5.30;;
37241;SDS011;23135;51.078;12.108;2023-06-10T08:19:08;10.63;;;4.88;;
37241;SDS011;23135;51.078;12.108;2023-06-10T08:21:34;9.55;;;5.45;;
37241;SDS011;23135;51.078;12.108;2023-06-10T08:24:01;13.93;;;5.22;;
37241;SDS011;23135;51.078;12.108;2023-06-10T08:26:27;6.88;;;4.45;;
37241;SDS011;23135;51.078;12.108;2023-06-10T08:28:53;9.65;;;5.38;;
37241;SDS011;23135;51.078;12.108;2023-06-10T08:31:20;6.82;;;4.55;;
37241;SDS011;23135;51.078;12.108;2023-06-10T08:33:46;7.50;;;4.88;;
37241;SDS011;23135;51.078;12.108;2023-06-10T08:36:11;7.20;;;4.80;;
37241;SDS011;23135;51.078;12.108;2023-06-10T08:38:37;11.43;;;5.72;;
37241;SDS011;23135;51.078;12.108;2023-06-10T08:41:04;8.60;;;5.15;;
37241;SDS011;23135;51.078;12.108;2023-06-10T08:48:31;8.48;;;5.50;;
37241;SDS011;23135;51.078;12.108;2023-06-10T08:50:59;7.75;;;5.30;;
37241;SDS011;23135;51.078;12.108;2023-06-10T08:53:28;11.10;;;4.93;;
37241;SDS011;23135;51.078;12.108;2023-06-10T08:55:58;15.80;;;5.45;;
37241;SDS011;23135;51.078;12.108;2023-06-10T08:58:27;8.30;;;5.38;;
37241;SDS011;23135;51.078;12.108;2023-06-10T09:00:53;10.40;;;6.07;;
37241;SDS011;23135;51.078;12.108;2023-06-10T09:03:19;8.63;;;4.72;;
37241;SDS011;23135;51.078;12.108;2023-06-10T09:05:46;9.32;;;4.63;;
37241;SDS011;23135;51.078;12.108;2023-06-10T09:08:13;11.02;;;4.70;;
37241;SDS011;23135;51.078;12.108;2023-06-10T09:10:40;10.23;;;5.07;;
37241;SDS011;23135;51.078;12.108;2023-06-10T09:13:06;10.88;;;4.72;;
37241;SDS011;23135;51.078;12.108;2023-06-10T09:15:32;9.38;;;5.20;;
37241;SDS011;23135;51.078;12.108;2023-06-10T09:17:58;9.02;;;4.88;;
37241;SDS011;23135;51.078;12.108;2023-06-10T09:20:25;7.03;;;5.03;;
37241;SDS011;23135;51.078;12.108;2023-06-10T09:22:51;10.98;;;5.60;;
37241;SDS011;23135;51.078;12.108;2023-06-10T09:25:17;9.88;;;4.32;;
37241;SDS011;23135;51.078;12.108;2023-06-10T09:27:46;8.43;;;5.78;;
37241;SDS011;23135;51.078;12.108;2023-06-10T09:32:52;9.35;;;5.20;;
37241;SDS011;23135;51.078;12.108;2023-06-10T09:35:22;7.10;;;5.03;;
37241;SDS011;23135;51.078;12.108;2023-06-10T09:37:52;15.18;;;5.20;;
37241;SDS011;23135;51.078;12.108;2023-06-10T09:40:18;9.05;;;5.68;;
37241;SDS011;23135;51.078;12.108;2023-06-10T09:42:44;15.18;;;5.50;;
37241;SDS011;23135;51.078;12.108;2023-06-10T09:45:10;10.65;;;5.80;;
37241;SDS011;23135;51.078;12.108;2023-06-10T09:47:35;6.93;;;5.20;;
37241;SDS011;23135;51.078;12.108;2023-06-10T09:50:01;10.23;;;5.45;;
37241;SDS011;23135;51.078;12.108;2023-06-10T09:52:28;8.15;;;5.03;;
37241;SDS011;23135;51.078;12.108;2023-06-10T09:54:58;11.20;;;5.88;;
37241;SDS011;23135;51.078;12.108;2023-06-10T09:57:26;9.98;;;5.85;;
37241;SDS011;23135;51.078;12.108;2023-06-10T10:02:23;10.00;;;5.90;;
37241;SDS011;23135;51.078;12.108;2023-06-10T10:04:48;7.75;;;4.78;;
37241;SDS011;23135;51.078;12.108;2023-06-10T10:07:14;10.52;;;5.45;;
37241;SDS011;23135;51.078;12.108;2023-06-10T10:09:40;11.40;;;5.65;;
37241;SDS011;23135;51.078;12.108;2023-06-10T10:12:15;8.88;;;5.57;;
37241;SDS011;23135;51.078;12.108;2023-06-10T10:14:47;10.07;;;6.03;;
37241;SDS011;23135;51.078;12.108;2023-06-10T10:17:15;5.07;;;4.60;;
37241;SDS011;23135;51.078;12.108;2023-06-10T10:19:48;7.13;;;5.80;;
37241;SDS011;23135;51.078;12.108;2023-06-10T10:22:19;7.47;;;5.72;;
37241;SDS011;23135;51.078;12.108;2023-06-10T10:24:50;8.18;;;5.75;;
37241;SDS011;23135;51.078;12.108;2023-06-10T10:27:27;10.48;;;5.35;;
37241;SDS011;23135;51.078;12.108;2023-06-10T10:29:58;10.88;;;5.50;;
37241;SDS011;23135;51.078;12.108;2023-06-10T10:32:26;8.15;;;6.00;;
37241;SDS011;23135;51.078;12.108;2023-06-10T10:35:07;7.10;;;6.25;;
37241;SDS011;23135;51.078;12.108;2023-06-10T10:37:34;8.55;;;5.65;;
37241;SDS011;23135;51.078;12.108;2023-06-10T10:40:00;11.30;;;5.20;;
37241;SDS011;23135;51.078;12.108;2023-06-10T10:42:28;9.70;;;6.07;;
37241;SDS011;23135;51.078;12.108;2023-06-10T10:44:55;6.82;;;5.65;;
37241;SDS011;23135;51.078;12.108;2023-06-10T10:47:21;6.80;;;6.05;;
37241;SDS011;23135;51.078;12.108;2023-06-10T10:49:48;10.82;;;5.88;;
37241;SDS011;23135;51.078;12.108;2023-06-10T10:52:18;12.63;;;6.50;;
37241;SDS011;23135;51.078;12.108;2023-06-10T10:54:44;9.38;;;6.18;;
37241;SDS011;23135;51.078;12.108;2023-06-10T10:57:18;9.65;;;5.43;;
37241;SDS011;23135;51.078;12.108;2023-06-10T10:59:58;12.32;;;5.82;;
37241;SDS011;23135;51.078;12.108;2023-06-10T11:05:07;8.77;;;6.25;;
37241;SDS011;23135;51.078;12.108;2023-06-10T11:07:35;6.50;;;5.80;;
37241;SDS011;23135;51.078;12.108;2023-06-10T11:10:11;8.63;;;5.20;;
37241;SDS011;23135;51.078;12.108;2023-06-10T11:15:10;6.40;;;5.13;;
37241;SDS011;23135;51.078;12.108;2023-06-10T11:18:28;10.88;;;6.13;;
37241;SDS011;23135;51.078;12.108;2023-06-10T11:29:00;12.75;;;7.00;;
37241;SDS011;23135;51.078;12.108;2023-06-10T11:31:44;8.40;;;5.63;;
37241;SDS011;23135;51.078;12.108;2023-06-10T11:34:11;5.25;;;4.75;;
37241;SDS011;23135;51.078;12.108;2023-06-10T11:36:39;7.35;;;4.75;;
37241;SDS011;23135;51.078;12.108;2023-06-10T11:39:07;6.60;;;4.75;;
37241;SDS011;23135;51.078;12.108;2023-06-10T11:41:34;5.38;;;4.45;;
37241;SDS011;23135;51.078;12.108;2023-06-10T11:44:01;7.55;;;4.97;;
37241;SDS011;23135;51.078;12.108;2023-06-10T11:46:33;9.88;;;5.20;;
37241;SDS011;23135;51.078;12.108;2023-06-10T11:48:59;4.13;;;3.72;;
37241;SDS011;23135;51.078;12.108;2023-06-10T11:51:27;4.35;;;3.72;;
37241;SDS011;23135;51.078;12.108;2023-06-10T11:53:55;3.92;;;3.50;;
37241;SDS011;23135;51.078;12.108;2023-06-10T11:56:24;4.15;;;3.72;;
37241;SDS011;23135;51.078;12.108;2023-06-10T11:58:52;10.03;;;2.93;;
37241;SDS011;23135;51.078;12.108;2023-06-10T12:01:23;6.18;;;3.00;;
37241;SDS011;23135;51.078;12.108;2023-06-10T12:04:02;10.48;;;4.00;;
37241;SDS011;23135;51.078;12.108;2023-06-10T12:11:57;6.43;;;2.13;;
37241;SDS011;23135;51.078;12.108;2023-06-10T12:17:09;65.75;;;9.73;;
37241;SDS011;23135;51.078;12.108;2023-06-10T12:19:38;25.05;;;3.92;;
37241;SDS011;23135;51.078;12.108;2023-06-10T12:22:04;7.28;;;2.78;;
37241;SDS011;23135;51.078;12.108;2023-06-10T12:24:30;2.22;;;2.03;;
37241;SDS011;23135;51.078;12.108;2023-06-10T12:26:55;6.43;;;2.20;;
37241;SDS011;23135;51.078;12.108;2023-06-10T12:29:22;4.47;;;2.00;;
37241;SDS011;23135;51.078;12.108;2023-06-10T12:32:01;4.30;;;2.10;;
37241;SDS011;23135;51.078;12.108;2023-06-10T12:34:39;10.85;;;1.73;;
37241;SDS011;23135;51.078;12.108;2023-06-10T12:37:05;7.40;;;1.38;;
37241;SDS011;23135;51.078;12.108;2023-06-10T12:39:39;4.65;;;2.30;;
37241;SDS011;23135;51.078;12.108;2023-06-10T12:42:06;4.38;;;1.85;;
37241;SDS011;23135;51.078;12.108;2023-06-10T12:44:35;5.15;;;1.77;;
37241;SDS011;23135;51.078;12.108;2023-06-10T12:47:08;5.25;;;2.13;;
37241;SDS011;23135;51.078;12.108;2023-06-10T12:49:35;2.22;;;1.60;;
37241;SDS011;23135;51.078;12.108;2023-06-10T12:52:02;8.82;;;1.77;;
37241;SDS011;23135;51.078;12.108;2023-06-10T12:54:28;9.00;;;2.40;;
37241;SDS011;23135;51.078;12.108;2023-06-10T12:56:54;7.60;;;1.85;;
37241;SDS011;23135;51.078;12.108;2023-06-10T12:59:20;7.15;;;1.58;;
37241;SDS011;23135;51.078;12.108;2023-06-10T13:01:52;3.05;;;1.90;;
37241;SDS011;23135;51.078;12.108;2023-06-10T13:04:18;2.15;;;1.40;;
37241;SDS011;23135;51.078;12.108;2023-06-10T13:06:43;5.28;;;2.10;;
37241;SDS011;23135;51.078;12.108;2023-06-10T13:09:09;17.05;;;2.63;;
37241;SDS011;23135;51.078;12.108;2023-06-10T13:11:35;2.92;;;1.70;;
37241;SDS011;23135;51.078;12.108;2023-06-10T13:14:02;2.75;;;1.58;;
37241;SDS011;23135;51.078;12.108;2023-06-10T13:16:29;3.78;;;1.90;;
37241;SDS011;23135;51.078;12.108;2023-06-10T13:18:55;1.63;;;1.52;;
37241;SDS011;23135;51.078;12.108;2023-06-10T13:21:21;2.70;;;2.10;;
37241;SDS011;23135;51.078;12.108;2023-06-10T13:23:46;3.47;;;2.38;;
37241;SDS011;23135;51.078;12.108;2023-06-10T13:26:15;2.78;;;1.95;;
37241;SDS011;23135;51.078;12.108;2023-06-10T13:28:42;3.17;;;1.65;;
37241;SDS011;23135;51.078;12.108;2023-06-10T13:31:08;3.25;;;1.83;;
37241;SDS011;23135;51.078;12.108;2023-06-10T13:33:34;4.00;;;1.98;;
37241;SDS011;23135;51.078;12.108;2023-06-10T13:35:59;5.65;;;1.58;;
37241;SDS011;23135;51.078;12.108;2023-06-10T13:38:25;5.55;;;1.73;;
37241;SDS011;23135;51.078;12.108;2023-06-10T13:40:50;4.43;;;1.90;;
37241;SDS011;23135;51.078;12.108;2023-06-10T13:43:16;15.80;;;2.67;;
37241;SDS011;23135;51.078;12.108;2023-06-10T13:45:42;21.25;;;2.28;;
37241;SDS011;23135;51.078;12.108;2023-06-10T13:48:07;17.38;;;2.60;;
37241;SDS011;23135;51.078;12.108;2023-06-10T13:50:33;9.32;;;2.25;;
37241;SDS011;23135;51.078;12.108;2023-06-10T13:52:59;6.60;;;1.67;;
37241;SDS011;23135;51.078;12.108;2023-06-10T13:55:24;6.13;;;2.13;;
37241;SDS011;23135;51.078;12.108;2023-06-10T13:57:50;12.68;;;1.83;;
37241;SDS011;23135;51.078;12.108;2023-06-10T14:00:16;14.23;;;2.58;;
37241;SDS011;23135;51.078;12.108;2023-06-10T14:02:42;9.73;;;1.58;;
37241;SDS011;23135;51.078;12.108;2023-06-10T14:05:08;10.18;;;2.13;;
37241;SDS011;23135;51.078;12.108;2023-06-10T14:07:34;7.68;;;1.80;;
37241;SDS011;23135;51.078;12.108;2023-06-10T14:10:00;4.05;;;1.92;;
37241;SDS011;23135;51.078;12.108;2023-06-10T14:12:25;12.07;;;2.22;;
37241;SDS011;23135;51.078;12.108;2023-06-10T14:14:51;5.60;;;1.33;;
37241;SDS011;23135;51.078;12.108;2023-06-10T14:17:16;3.30;;;1.10;;
37241;SDS011;23135;51.078;12.108;2023-06-10T14:19:42;1.17;;;1.17;;
37241;SDS011;23135;51.078;12.108;2023-06-10T14:22:07;2.92;;;1.17;;
37241;SDS011;23135;51.078;12.108;2023-06-10T14:24:33;3.67;;;1.20;;
37241;SDS011;23135;51.078;12.108;2023-06-10T14:27:01;5.10;;;1.17;;
37241;SDS011;23135;51.078;12.108;2023-06-10T14:29:26;1.20;;;1.10;;
37241;SDS011;23135;51.078;12.108;2023-06-10T14:31:54;1.63;;;1.13;;
37241;SDS011;23135;51.078;12.108;2023-06-10T14:34:19;3.45;;;1.52;;
37241;SDS011;23135;51.078;12.108;2023-06-10T14:36:45;1.75;;;1.27;;
37241;SDS011;23135;51.078;12.108;2023-06-10T14:39:11;3.00;;;1.50;;
37241;SDS011;23135;51.078;12.108;2023-06-10T14:41:36;1.33;;;1.23;;
37241;SDS011;23135;51.078;12.108;2023-06-10T14:44:02;1.38;;;1.27;;
37241;SDS011;23135;51.078;12.108;2023-06-10T14:46:28;1.85;;;0.90;;
37241;SDS011;23135;51.078;12.108;2023-06-10T14:48:53;4.13;;;1.02;;
37241;SDS011;23135;51.078;12.108;2023-06-10T14:51:19;3.40;;;1.30;;
37241;SDS011;23135;51.078;12.108;2023-06-10T14:53:45;3.35;;;1.27;;
37241;SDS011;23135;51.078;12.108;2023-06-10T14:56:11;9.77;;;1.23;;
37241;SDS011;23135;51.078;12.108;2023-06-10T14:58:37;2.47;;;1.27;;
37241;SDS011;23135;51.078;12.108;2023-06-10T15:01:03;17.60;;;8.25;;
37241;SDS011;23135;51.078;12.108;2023-06-10T15:03:29;8.30;;;4.70;;
37241;SDS011;23135;51.078;12.108;2023-06-10T15:05:54;2.17;;;2.08;;